createdAt,value
2022-11-05T00:01:48.798Z,84.11
2022-11-05T00:06:48.542Z,83.97
2022-11-05T00:11:48.325Z,83.71
2022-11-05T00:16:48.300Z,83.41
2022-11-05T00:21:48.312Z,83.56
2022-11-05T00:26:48.329Z,83.43
2022-11-05T00:31:48.376Z,83.29
2022-11-05T00:36:48.414Z,83.51
2022-11-05T00:41:48.386Z,83.52
2022-11-05T00:46:48.393Z,83.64
2022-11-05T00:51:48.383Z,83.62
2022-11-05T00:56:48.377Z,84.68
2022-11-05T01:01:49.157Z,86.62
2022-11-05T01:06:48.440Z,85.68
2022-11-05T01:11:48.409Z,86.04
2022-11-05T01:16:48.453Z,84.96
2022-11-05T01:21:48.450Z,84.74
2022-11-05T01:26:48.457Z,84.93
2022-11-05T01:31:48.574Z,84.88
2022-11-05T01:36:48.620Z,85.05
2022-11-05T01:41:48.543Z,85.05
2022-11-05T01:46:48.511Z,85.24
2022-11-05T01:51:49.728Z,85.05
2022-11-05T01:56:52.509Z,85.04
2022-11-05T02:01:50.040Z,85.32
2022-11-05T02:06:48.837Z,85.70
2022-11-05T02:11:50.032Z,85.75
2022-11-05T02:17:05.505Z,86.98
2022-11-05T02:21:58.543Z,86.94
2022-11-05T02:27:00.396Z,87.22
2022-11-05T02:32:02.002Z,86.97
2022-11-05T02:36:55.995Z,86.98
2022-11-05T02:42:04.759Z,86.71
2022-11-05T02:47:07.099Z,86.86
2022-11-05T02:51:56.802Z,86.85
2022-11-05T02:56:51.578Z,87.12
2022-11-05T03:01:51.905Z,87.32
2022-11-05T03:06:59.675Z,87.03
2022-11-05T03:12:08.599Z,86.95
2022-11-05T03:16:58.236Z,87.76
2022-11-05T03:21:54.337Z,88.26
2022-11-05T03:26:53.350Z,87.86
2022-11-05T03:31:52.600Z,87.98
2022-11-05T03:36:53.509Z,87.58
2022-11-05T03:41:51.148Z,87.57
2022-11-05T03:46:52.415Z,87.17
2022-11-05T03:52:00.524Z,86.00
2022-11-05T03:56:59.803Z,86.12
2022-11-05T04:01:49.587Z,87.23
2022-11-05T04:06:48.836Z,87.50
2022-11-05T04:11:48.840Z,87.53
2022-11-05T04:16:48.832Z,87.97
2022-11-05T04:21:48.847Z,87.59
2022-11-05T04:26:48.858Z,87.59
2022-11-05T04:31:49.180Z,87.69
2022-11-05T04:36:50.246Z,87.85
2022-11-05T04:41:48.973Z,87.65
2022-11-05T04:46:48.906Z,87.97
2022-11-05T04:51:48.985Z,88.01
2022-11-05T04:56:48.943Z,87.61
2022-11-05T05:01:52.242Z,87.76
2022-11-05T05:06:48.961Z,87.29
2022-11-05T05:11:48.997Z,87.22
2022-11-05T05:16:48.969Z,88.43
2022-11-05T05:21:48.985Z,88.03
2022-11-05T05:26:49.943Z,87.54
2022-11-05T05:31:49.002Z,87.77
2022-11-05T05:36:49.023Z,87.34
2022-11-05T05:41:49.064Z,87.32
2022-11-05T05:46:49.166Z,87.44
2022-11-05T05:51:49.057Z,87.77
2022-11-05T05:56:49.097Z,87.29
2022-11-05T06:01:50.576Z,87.52
2022-11-05T06:06:49.088Z,88.06
2022-11-05T06:11:49.169Z,86.96
2022-11-05T06:16:49.101Z,87.84
2022-11-05T06:21:49.120Z,88.64
2022-11-05T06:26:49.137Z,88.42
2022-11-05T06:31:49.174Z,88.58
2022-11-05T06:36:49.148Z,88.32
2022-11-05T06:42:16.519Z,88.61
2022-11-05T06:46:49.231Z,88.90
2022-11-05T06:51:50.163Z,88.47
2022-11-05T06:56:49.186Z,88.75
2022-11-05T07:01:49.986Z,88.35
2022-11-05T07:06:49.228Z,88.12
2022-11-05T07:11:49.252Z,88.08
2022-11-05T07:16:49.233Z,88.25
2022-11-05T07:21:49.242Z,88.11
2022-11-05T07:26:49.291Z,88.07
2022-11-05T07:31:49.289Z,88.42
2022-11-05T07:36:49.289Z,87.84
2022-11-05T07:41:52.487Z,87.81
2022-11-05T07:46:50.086Z,87.82
2022-11-05T07:51:49.324Z,87.45
2022-11-05T07:56:49.356Z,86.91
2022-11-05T08:01:50.083Z,86.20
2022-11-05T08:06:49.363Z,86.39
2022-11-05T08:11:52.822Z,86.06
2022-11-05T08:16:49.379Z,85.54
2022-11-05T08:21:49.413Z,85.15
2022-11-05T08:26:49.412Z,85.68
2022-11-05T08:31:49.453Z,84.29
2022-11-05T08:36:49.404Z,84.09
2022-11-05T08:41:49.459Z,83.27
2022-11-05T08:46:49.474Z,83.34
2022-11-05T08:51:49.457Z,81.70
2022-11-05T08:56:49.483Z,80.68
2022-11-05T09:01:50.264Z,78.74
2022-11-05T09:06:49.486Z,79.40
2022-11-05T09:12:11.003Z,71.79
2022-11-05T09:16:49.511Z,70.88
2022-11-05T09:21:49.532Z,68.94
2022-11-05T09:26:49.547Z,65.19
2022-11-05T09:31:49.556Z,64.76
2022-11-05T09:36:49.577Z,61.54
2022-11-05T09:41:52.849Z,65.52
2022-11-05T09:46:55.401Z,58.57
2022-11-05T09:51:51.962Z,59.88
2022-11-05T09:56:51.329Z,58.29
2022-11-05T10:01:53.725Z,57.90
2022-11-05T10:06:54.609Z,55.91
2022-11-05T10:11:56.883Z,55.11
2022-11-05T10:16:57.183Z,55.32
2022-11-05T10:22:06.098Z,56.49
2022-11-05T10:26:51.886Z,61.41
2022-11-05T10:31:51.995Z,63.48
2022-11-05T10:36:49.699Z,66.30
2022-11-05T10:42:00.644Z,68.02
2022-11-05T10:47:07.181Z,68.54
2022-11-05T10:51:55.957Z,70.05
2022-11-05T10:56:50.085Z,70.36
2022-11-05T11:02:00.914Z,70.67
2022-11-05T11:06:52.996Z,71.49
2022-11-05T11:12:09.667Z,71.85
2022-11-05T11:16:50.271Z,71.83
2022-11-05T11:22:03.002Z,71.72
2022-11-05T11:26:50.607Z,71.73
2022-11-05T11:31:54.725Z,71.61
2022-11-05T11:36:54.102Z,70.76
2022-11-05T11:41:53.034Z,71.81
2022-11-05T11:46:52.372Z,71.66
2022-11-05T11:51:58.568Z,71.82
2022-11-05T11:56:49.905Z,70.84
2022-11-05T12:02:01.080Z,70.80
2022-11-05T12:07:00.904Z,70.56
2022-11-05T12:11:59.135Z,70.09
2022-11-05T12:17:07.675Z,70.11
2022-11-05T12:21:53.039Z,69.62
2022-11-05T12:26:56.574Z,69.54
2022-11-05T12:31:59.925Z,65.57
2022-11-05T12:37:09.295Z,63.82
2022-11-05T12:41:55.665Z,63.49
2022-11-05T12:47:03.895Z,64.67
2022-11-05T12:51:59.959Z,65.24
2022-11-05T12:56:56.546Z,66.68
2022-11-05T13:02:01.149Z,66.30
2022-11-05T13:06:54.671Z,67.19
2022-11-05T13:11:56.168Z,67.87
2022-11-05T13:16:55.397Z,68.00
2022-11-05T13:21:56.548Z,68.07
2022-11-05T13:26:55.066Z,68.53
2022-11-05T13:31:55.888Z,68.17
2022-11-05T13:36:55.517Z,68.53
2022-11-05T13:42:00.095Z,69.10
2022-11-05T13:47:05.889Z,68.54
2022-11-05T13:51:54.390Z,69.01
2022-11-05T13:57:03.335Z,70.07
2022-11-05T14:01:57.809Z,69.65
2022-11-05T14:06:50.388Z,69.82
2022-11-05T14:11:53.992Z,69.64
2022-11-05T14:16:51.984Z,69.02
2022-11-05T14:21:51.681Z,69.32
2022-11-05T14:27:00.157Z,69.28
2022-11-05T14:32:08.512Z,69.12
2022-11-05T14:37:10.138Z,69.44
2022-11-05T14:41:51.253Z,69.88
2022-11-05T14:46:53.891Z,70.17
2022-11-05T14:51:53.279Z,70.76
2022-11-05T14:56:56.476Z,70.31
2022-11-05T15:01:55.793Z,70.59
2022-11-05T15:07:01.255Z,70.76
2022-11-05T15:11:59.531Z,71.11
2022-11-05T15:16:53.522Z,71.07
2022-11-05T15:21:53.169Z,71.22
2022-11-05T15:26:54.934Z,71.92
2022-11-05T15:31:51.736Z,71.76
2022-11-05T15:36:54.183Z,71.92
2022-11-05T15:41:50.443Z,72.33
2022-11-05T15:47:10.304Z,72.58
2022-11-05T15:51:50.395Z,72.99
2022-11-05T15:56:53.988Z,73.32
2022-11-05T16:01:54.201Z,73.46
2022-11-05T16:06:54.470Z,73.51
2022-11-05T16:12:10.348Z,73.57
2022-11-05T16:16:50.523Z,74.19
2022-11-05T16:21:52.445Z,74.28
2022-11-05T16:27:03.463Z,74.52
2022-11-05T16:31:53.239Z,74.49
2022-11-05T16:36:52.846Z,74.73
2022-11-05T16:41:50.686Z,75.12
2022-11-05T16:46:51.383Z,75.12
2022-11-05T16:51:51.269Z,75.09
2022-11-05T16:56:50.558Z,75.16
2022-11-05T17:01:55.510Z,75.20
2022-11-05T17:06:50.661Z,75.33
2022-11-05T17:11:50.630Z,75.66
2022-11-05T17:16:50.730Z,75.12
2022-11-05T17:21:50.624Z,75.65
2022-11-05T17:26:50.648Z,75.96
2022-11-05T17:31:50.615Z,75.88
2022-11-05T17:36:50.653Z,75.68
2022-11-05T17:41:50.652Z,75.98
2022-11-05T17:46:50.674Z,76.04
2022-11-05T17:51:50.671Z,76.23
2022-11-05T17:56:50.671Z,76.37
2022-11-05T18:01:51.455Z,76.50
2022-11-05T18:06:50.717Z,76.44
2022-11-05T18:11:50.738Z,76.64
2022-11-05T18:16:51.302Z,76.39
2022-11-05T18:21:50.745Z,76.77
2022-11-05T18:26:50.771Z,76.68
2022-11-05T18:31:50.788Z,76.72
2022-11-05T18:36:56.018Z,76.27
2022-11-05T18:41:50.790Z,76.37
2022-11-05T18:46:57.997Z,76.20
2022-11-05T18:51:50.880Z,76.28
2022-11-05T18:56:50.809Z,75.92
2022-11-05T19:01:52.394Z,76.01
2022-11-05T19:06:50.853Z,75.80
2022-11-05T19:11:50.877Z,75.86
2022-11-05T19:16:50.941Z,75.90
2022-11-05T19:21:51.270Z,75.90
2022-11-05T19:26:50.944Z,76.23
2022-11-05T19:31:50.953Z,76.11
2022-11-05T19:36:50.907Z,76.32
2022-11-05T19:41:51.067Z,77.00
2022-11-05T19:46:50.924Z,76.63
2022-11-05T19:51:50.938Z,77.30
2022-11-05T19:56:51.009Z,77.32
2022-11-05T20:01:51.705Z,77.29
2022-11-05T20:06:51.064Z,77.85
2022-11-05T20:11:52.115Z,77.57
2022-11-05T20:16:51.827Z,77.68
2022-11-05T20:21:51.034Z,77.70
2022-11-05T20:26:53.176Z,77.84
2022-11-05T20:31:51.628Z,78.21
2022-11-05T20:36:51.033Z,78.24
2022-11-05T20:41:51.071Z,78.14
2022-11-05T20:46:51.148Z,78.14
2022-11-05T20:51:51.218Z,78.30
2022-11-05T20:56:51.170Z,78.16
2022-11-05T21:01:52.742Z,78.33
2022-11-05T21:06:51.125Z,78.37
2022-11-05T21:11:51.144Z,78.10
2022-11-05T21:16:51.131Z,78.13
2022-11-05T21:21:51.147Z,78.35
2022-11-05T21:26:51.325Z,78.45
2022-11-05T21:31:51.407Z,78.59
2022-11-05T21:36:51.198Z,78.96
2022-11-05T21:41:51.204Z,78.94
2022-11-05T21:46:54.642Z,78.80
2022-11-05T21:51:51.355Z,78.79
2022-11-05T21:56:51.247Z,78.75
2022-11-05T22:01:51.832Z,79.09
2022-11-05T22:06:51.279Z,79.08
2022-11-05T22:11:51.684Z,79.11
2022-11-05T22:16:51.474Z,79.02
2022-11-05T22:21:51.387Z,79.27
2022-11-05T22:26:51.343Z,79.24
2022-11-05T22:31:51.413Z,79.41
2022-11-05T22:36:51.825Z,79.54
2022-11-05T22:41:54.383Z,79.53
2022-11-05T22:46:52.362Z,79.36
2022-11-05T22:51:51.344Z,79.71
2022-11-05T22:56:51.350Z,79.96
2022-11-05T23:01:52.172Z,79.92
2022-11-05T23:06:51.384Z,79.87
2022-11-05T23:11:52.690Z,79.89
2022-11-05T23:16:51.727Z,80.19
2022-11-05T23:21:51.409Z,79.99
2022-11-05T23:26:51.458Z,80.00
2022-11-05T23:31:52.261Z,80.39
2022-11-05T23:36:51.453Z,80.15
2022-11-05T23:41:51.528Z,79.97
2022-11-05T23:46:51.455Z,80.27
2022-11-05T23:51:51.486Z,80.84
2022-11-05T23:56:52.041Z,80.64
